createdAt,value
2022-10-04T00:07:12.235Z,100.00
2022-10-04T00:17:36.641Z,100.00
2022-10-04T00:28:17.851Z,100.00
2022-10-04T00:38:39.291Z,100.00
2022-10-04T00:49:02.994Z,100.00
2022-10-04T00:59:43.088Z,100.00
2022-10-04T01:10:11.187Z,100.00
2022-10-04T01:20:34.062Z,100.00
2022-10-04T01:30:55.447Z,100.00
2022-10-04T01:41:19.218Z,100.00
2022-10-04T01:51:45.639Z,100.00
2022-10-04T02:02:10.720Z,100.00
2022-10-04T02:12:34.800Z,100.00
2022-10-04T02:22:59.342Z,100.00
2022-10-04T02:33:20.907Z,100.00
2022-10-04T02:43:47.284Z,100.00
2022-10-04T02:54:16.936Z,100.00
2022-10-04T03:04:39.480Z,100.00
2022-10-04T03:15:00.869Z,100.00
2022-10-04T03:25:24.777Z,100.00
2022-10-04T03:35:48.042Z,100.00
2022-10-04T03:46:10.025Z,100.00
2022-10-04T03:56:33.641Z,100.00
2022-10-04T04:07:03.190Z,100.00
2022-10-04T04:17:27.730Z,100.00
2022-10-04T04:27:50.312Z,100.00
2022-10-04T04:38:21.158Z,100.00
2022-10-04T04:48:47.461Z,100.00
2022-10-04T04:59:08.904Z,100.00
2022-10-04T05:09:39.280Z,100.00
2022-10-04T05:20:01.686Z,100.00
2022-10-04T05:30:47.573Z,100.00
2022-10-04T05:41:42.186Z,100.00
2022-10-04T05:52:12.544Z,100.00
2022-10-04T06:02:54.897Z,100.00
2022-10-04T06:13:22.490Z,100.00
2022-10-04T06:24:04.127Z,100.00
2022-10-04T06:34:40.786Z,100.00
2022-10-04T06:45:18.029Z,100.00
2022-10-04T06:55:47.092Z,100.00
2022-10-04T07:06:11.305Z,100.00
2022-10-04T07:16:32.913Z,100.00
2022-10-04T07:26:55.028Z,100.00
2022-10-04T07:37:16.423Z,100.00
2022-10-04T07:47:37.926Z,100.00
2022-10-04T07:57:59.255Z,100.00
2022-10-04T08:08:39.611Z,100.00
2022-10-04T08:19:12.272Z,100.00
2022-10-04T08:29:48.495Z,100.00
2022-10-04T08:40:24.021Z,100.00
2022-10-04T08:50:48.528Z,97.42
2022-10-04T09:01:25.374Z,96.76
2022-10-04T09:12:03.620Z,94.16
2022-10-04T09:22:43.820Z,89.64
2022-10-04T09:33:08.257Z,91.29
2022-10-04T09:43:48.604Z,85.76
2022-10-04T09:54:10.081Z,83.97
2022-10-04T10:04:37.739Z,80.06
2022-10-04T10:15:05.209Z,80.35
2022-10-04T10:25:41.914Z,82.95
2022-10-04T10:36:22.017Z,79.95
2022-10-04T10:47:05.054Z,76.96
2022-10-04T10:57:43.431Z,80.73
2022-10-04T11:08:24.387Z,80.42
2022-10-04T11:19:16.169Z,78.01
2022-10-04T11:29:45.510Z,79.20
2022-10-04T11:40:06.845Z,78.04
2022-10-04T11:50:38.973Z,75.12
2022-10-04T12:01:19.648Z,74.36
2022-10-04T12:12:07.850Z,75.78
2022-10-04T12:22:38.999Z,73.18
2022-10-04T12:33:03.436Z,73.09
2022-10-04T12:43:38.397Z,73.42
2022-10-04T12:54:20.165Z,71.76
2022-10-04T13:04:47.160Z,72.66
2022-10-04T13:15:11.578Z,70.58
2022-10-04T13:25:52.864Z,70.00
2022-10-04T13:36:26.944Z,70.06
2022-10-04T13:47:06.482Z,70.34
2022-10-04T13:57:37.174Z,72.92
2022-10-04T14:07:59.042Z,68.85
2022-10-04T14:18:27.512Z,68.63
2022-10-04T14:29:04.351Z,70.84
2022-10-04T14:39:28.742Z,70.82
2022-10-04T14:49:51.705Z,70.99
2022-10-04T15:00:16.281Z,72.39
2022-10-04T15:10:45.914Z,71.11
2022-10-04T15:21:20.307Z,72.53
2022-10-04T15:31:41.780Z,73.39
2022-10-04T15:42:13.130Z,73.35
2022-10-04T15:52:53.419Z,69.44
2022-10-04T16:03:39.497Z,71.16
2022-10-04T16:14:20.122Z,73.75
2022-10-04T16:24:52.595Z,78.18
2022-10-04T16:35:29.523Z,80.71
2022-10-04T16:46:09.890Z,83.85
2022-10-04T16:56:59.299Z,84.81
2022-10-04T17:08:02.613Z,86.69
2022-10-04T17:19:12.901Z,86.74
2022-10-04T17:29:58.435Z,89.64
2022-10-04T17:40:32.050Z,91.35
2022-10-04T17:51:29.555Z,91.60
2022-10-04T18:02:01.323Z,91.86
2022-10-04T18:12:36.466Z,92.60
2022-10-04T18:23:02.762Z,93.62
2022-10-04T18:33:33.413Z,92.29
2022-10-04T18:43:57.952Z,93.46
2022-10-04T18:55:04.835Z,93.51
2022-10-04T19:05:32.299Z,92.64
2022-10-04T19:16:15.822Z,93.88
2022-10-04T19:26:40.754Z,93.62
2022-10-04T19:37:10.708Z,93.77
2022-10-04T19:47:58.211Z,91.37
2022-10-04T19:58:29.863Z,90.99
2022-10-04T20:09:17.417Z,87.30
2022-10-04T20:19:43.261Z,89.15
2022-10-04T20:30:16.383Z,90.08
2022-10-04T20:40:40.819Z,90.69
2022-10-04T20:51:10.744Z,87.68
2022-10-04T21:01:36.314Z,86.81
2022-10-04T21:11:58.915Z,85.44
2022-10-04T21:22:26.657Z,84.70
2022-10-04T21:32:48.225Z,85.95
2022-10-04T21:43:09.750Z,85.85
2022-10-04T21:53:31.193Z,84.92
2022-10-04T22:03:52.761Z,84.09
2022-10-04T22:14:14.252Z,83.65
2022-10-04T22:24:35.952Z,83.94
2022-10-04T22:35:02.477Z,83.60
2022-10-04T22:45:27.152Z,84.15
2022-10-04T22:55:50.714Z,85.32
2022-10-04T23:06:15.328Z,84.93
2022-10-04T23:16:37.237Z,85.02
2022-10-04T23:26:58.755Z,85.28
2022-10-04T23:37:22.126Z,86.06
2022-10-04T23:47:44.425Z,85.21
2022-10-04T23:58:14.999Z,85.57
